Time;durP1;ratioP1;P1;durP2;ratioP2;P2;SDS_P1;SDS_P2;PMS_P1;PMS_P2;Temp;Humidity;BMP_temperature;BMP_pressure;BME280_temperature;BME280_humidity;BME280_pressure;Samples;Min_cycle;Max_cycle;Signal;HPM_P1;HPM_P2
2022/12/09 00:01:49;;;;;;;16.80;9.52;;;1.60;99.90;;;;;;5040471;28;20160;-81
2022/12/09 00:04:16;;;;;;;15.20;9.40;;;2.20;99.90;;;;;;5044323;28;20135;-80
2022/12/09 00:06:41;;;;;;;15.10;10.52;;;0.30;99.90;;;;;;5042096;28;20126;-81
2022/12/09 00:09:12;;;;;;;14.75;10.27;;;1.10;99.90;;;;;;5045550;28;20045;-81
2022/12/09 00:11:37;;;;;;;14.18;10.10;;;0.50;99.90;;;;;;5043880;28;20048;-80
2022/12/09 00:14:03;;;;;;;14.73;9.10;;;0.30;99.90;;;;;;5041510;28;20051;-81
2022/12/09 00:16:29;;;;;;;14.23;8.63;;;1.50;99.90;;;;;;5044935;28;20049;-80
2022/12/09 00:18:55;;;;;;;12.23;9.27;;;1.30;99.90;;;;;;5052464;28;20426;-80
2022/12/09 00:21:27;;;;;;;14.98;9.43;;;0.10;99.90;;;;;;5042058;28;20122;-80
2022/12/09 00:23:55;;;;;;;10.65;8.82;;;0.30;99.90;;;;;;5037640;28;20116;-80
2022/12/09 00:26:21;;;;;;;13.43;8.93;;;0.20;99.90;;;;;;5046632;28;20052;-80
2022/12/09 00:28:48;;;;;;;11.63;8.70;;;1.30;99.90;;;;;;5050836;28;20044;-80
2022/12/09 00:31:35;;;;;;;12.07;8.73;;;-1.00;99.90;;;;;;5044593;28;20048;-80
2022/12/09 00:34:05;;;;;;;10.70;6.68;;;0.20;99.90;;;;;;5050297;28;20065;-80
2022/12/09 00:36:30;;;;;;;12.43;8.07;;;0.20;99.90;;;;;;5042793;28;20497;-79
2022/12/09 00:38:57;;;;;;;10.95;7.55;;;0.10;99.90;;;;;;5045720;28;20055;-80
2022/12/09 00:41:23;;;;;;;18.63;10.48;;;1.60;99.90;;;;;;5052325;28;20051;-80
2022/12/09 00:43:48;;;;;;;12.45;7.90;;;0.20;99.90;;;;;;5038684;28;20037;-80
2022/12/09 00:46:14;;;;;;;13.18;7.97;;;1.00;99.90;;;;;;5021656;28;20110;-79
2022/12/09 00:48:41;;;;;;;12.63;8.93;;;1.30;99.90;;;;;;5050103;28;20047;-80
2022/12/09 00:51:12;;;;;;;8.65;7.75;;;0.10;99.90;;;;;;5042781;28;20123;-79
2022/12/09 00:53:38;;;;;;;12.18;7.63;;;1.50;99.90;;;;;;5049494;28;20045;-80
2022/12/09 00:56:04;;;;;;;11.07;7.07;;;0.00;99.90;;;;;;5040349;28;20075;-80
2022/12/09 00:58:30;;;;;;;15.27;8.63;;;0.00;99.90;;;;;;5041236;28;20115;-79
2022/12/09 01:00:56;;;;;;;13.60;8.88;;;0.20;99.90;;;;;;5046042;28;20109;-80
2022/12/09 01:03:21;;;;;;;11.07;8.45;;;0.90;99.90;;;;;;5029741;28;20086;-79
2022/12/09 01:05:48;;;;;;;10.30;7.85;;;0.00;99.90;;;;;;5045683;28;20052;-79
2022/12/09 01:08:14;;;;;;;12.88;8.77;;;0.10;99.90;;;;;;5053187;28;20084;-79
2022/12/09 01:10:41;;;;;;;12.95;7.85;;;0.10;99.90;;;;;;5047139;28;20090;-79
2022/12/09 01:13:07;;;;;;;8.02;6.30;;;0.80;99.90;;;;;;5046350;28;20505;-80
2022/12/09 01:15:33;;;;;;;11.52;7.82;;;0.20;99.90;;;;;;5043114;28;20055;-80
2022/12/09 01:17:59;;;;;;;11.82;7.82;;;0.20;99.90;;;;;;5040719;28;20869;-79
2022/12/09 01:20:25;;;;;;;13.05;7.57;;;0.20;99.90;;;;;;5047303;28;20222;-79
2022/12/09 01:22:50;;;;;;;13.50;8.63;;;0.20;99.90;;;;;;5051754;28;20503;-79
2022/12/09 01:25:16;;;;;;;13.20;9.00;;;1.10;99.90;;;;;;5049612;28;20041;-79
2022/12/09 01:27:42;;;;;;;9.93;7.55;;;0.30;99.90;;;;;;5050775;28;20048;-80
2022/12/09 01:30:10;;;;;;;10.20;7.70;;;1.60;99.90;;;;;;5044227;28;20614;-79
2022/12/09 01:32:36;;;;;;;12.90;7.20;;;0.30;99.90;;;;;;5051382;28;20061;-79
2022/12/09 01:35:03;;;;;;;14.25;8.07;;;0.30;99.90;;;;;;5042867;28;20076;-79
2022/12/09 01:37:31;;;;;;;11.23;8.43;;;0.20;99.90;;;;;;5051404;28;20059;-79
2022/12/09 01:39:57;;;;;;;10.77;7.93;;;0.80;99.90;;;;;;5045072;28;20049;-79
2022/12/09 01:42:25;;;;;;;11.55;7.70;;;1.00;99.90;;;;;;5045091;28;20051;-79
2022/12/09 01:45:19;;;;;;;9.90;7.35;;;1.00;99.90;;;;;;5048162;28;20141;-79
2022/12/09 01:47:53;;;;;;;;;;;0.10;99.90;;;;;;5056711;28;20044;-79
2022/12/09 01:50:19;;;;;;;13.63;9.43;;;0.10;99.90;;;;;;5046972;28;20525;-79
2022/12/09 01:52:46;;;;;;;13.80;8.95;;;0.60;99.90;;;;;;5041341;28;20066;-78
2022/12/09 01:55:13;;;;;;;11.15;7.13;;;0.30;99.90;;;;;;5042856;28;20049;-78
2022/12/09 01:57:39;;;;;;;10.45;6.60;;;0.90;99.90;;;;;;5052902;28;20052;-78
2022/12/09 02:00:06;;;;;;;12.85;8.77;;;0.40;99.90;;;;;;5040430;28;20580;-79
2022/12/09 02:02:34;;;;;;;11.52;8.05;;;0.50;99.90;;;;;;5056016;28;20063;-79
2022/12/09 02:05:00;;;;;;;10.90;7.45;;;0.80;99.90;;;;;;5044986;28;20136;-79
2022/12/09 02:07:26;;;;;;;13.55;9.98;;;0.60;99.90;;;;;;5046822;28;20048;-80
2022/12/09 02:09:52;;;;;;;13.85;8.90;;;2.00;99.90;;;;;;5036612;28;20054;-80
2022/12/09 02:12:49;;;;;;;11.48;7.97;;;1.70;99.90;;;;;;5080638;28;20044;-80
2022/12/09 02:15:29;;;;;;;13.23;9.38;;;0.80;99.90;;;;;;5051016;28;20057;-80
2022/12/09 02:18:17;;;;;;;12.95;8.15;;;1.60;99.90;;;;;;5046594;28;20461;-80
2022/12/09 02:20:57;;;;;;;12.50;7.35;;;0.90;99.90;;;;;;5047990;28;20044;-80
2022/12/09 02:23:29;;;;;;;11.05;6.97;;;2.20;99.90;;;;;;5054185;28;20118;-80
2022/12/09 02:26:26;;;;;;;10.27;7.75;;;0.90;99.90;;;;;;5050387;28;20453;-79
2022/12/09 02:29:13;;;;;;;12.52;8.80;;;1.00;99.90;;;;;;5048335;28;20048;-79
2022/12/09 02:31:57;;;;;;;10.82;7.65;;;1.00;99.90;;;;;;5042350;28;20053;-79
2022/12/09 02:34:27;;;;;;;12.70;8.32;;;2.10;99.90;;;;;;5046789;28;20059;-79
2022/12/09 02:37:05;;;;;;;13.10;8.55;;;1.70;99.90;;;;;;5047633;28;20037;-79
2022/12/09 02:39:34;;;;;;;10.70;8.38;;;0.90;99.90;;;;;;5043123;28;20509;-79
2022/12/09 02:42:05;;;;;;;11.27;8.75;;;1.70;99.90;;;;;;5045195;28;20056;-79
2022/12/09 02:44:32;;;;;;;13.05;8.98;;;0.90;99.90;;;;;;5052548;28;20155;-79
2022/12/09 02:46:58;;;;;;;14.27;8.75;;;1.80;99.90;;;;;;5048995;28;20501;-79
2022/12/09 02:49:25;;;;;;;10.02;7.63;;;0.90;99.90;;;;;;5051316;28;20053;-79
2022/12/09 02:51:52;;;;;;;10.70;7.45;;;0.70;99.90;;;;;;5041616;28;20080;-79
2022/12/09 02:54:19;;;;;;;10.90;8.10;;;1.30;99.90;;;;;;5045487;28;20059;-79
2022/12/09 02:56:55;;;;;;;10.32;8.70;;;2.20;99.90;;;;;;5047327;28;20050;-79
2022/12/09 02:59:21;;;;;;;10.48;7.80;;;0.70;99.90;;;;;;5042671;28;20052;-79
2022/12/09 03:02:00;;;;;;;12.50;7.63;;;0.70;99.90;;;;;;5029404;28;20411;-79
2022/12/09 03:04:27;;;;;;;10.68;7.45;;;0.80;99.90;;;;;;5040909;28;20505;-79
2022/12/09 03:07:00;;;;;;;15.40;9.15;;;0.80;99.90;;;;;;5043203;28;20056;-79
2022/12/09 03:09:33;;;;;;;11.40;9.00;;;0.80;99.90;;;;;;5050382;28;20055;-79
2022/12/09 03:12:07;;;;;;;14.93;9.60;;;1.60;99.90;;;;;;5046790;28;20046;-79
2022/12/09 03:14:48;;;;;;;10.18;7.03;;;0.90;99.90;;;;;;5049057;28;20054;-79
2022/12/09 03:17:32;;;;;;;11.25;7.88;;;2.30;99.90;;;;;;5052822;28;20060;-79
2022/12/09 03:20:03;;;;;;;13.30;8.70;;;0.80;99.90;;;;;;5046386;28;20040;-79
2022/12/09 03:22:33;;;;;;;11.68;8.75;;;0.80;99.90;;;;;;5058248;28;20140;-79
2022/12/09 03:25:18;;;;;;;15.63;9.57;;;0.80;99.90;;;;;;5043393;28;20690;-79
2022/12/09 03:27:55;;;;;;;12.00;8.13;;;0.80;99.90;;;;;;5046231;28;20430;-79
2022/12/09 03:30:21;;;;;;;10.77;8.05;;;0.80;99.90;;;;;;5040412;28;20055;-79
2022/12/09 03:32:47;;;;;;;13.60;9.15;;;1.60;99.90;;;;;;5045138;28;20255;-79
2022/12/09 03:35:28;;;;;;;12.93;9.07;;;1.50;99.90;;;;;;5049227;28;20053;-79
2022/12/09 03:37:55;;;;;;;13.50;8.70;;;1.90;99.90;;;;;;5048159;28;20485;-79
2022/12/09 03:40:26;;;;;;;10.60;7.95;;;1.60;99.90;;;;;;5042705;28;20068;-79
2022/12/09 03:43:12;;;;;;;13.15;8.48;;;1.60;99.90;;;;;;5041331;28;20041;-79
2022/12/09 03:45:39;;;;;;;9.98;6.40;;;1.40;99.90;;;;;;5039397;28;20048;-79
2022/12/09 03:48:05;;;;;;;10.90;7.78;;;1.90;99.90;;;;;;5048407;28;20055;-79
2022/12/09 03:50:45;;;;;;;10.73;7.63;;;0.60;99.90;;;;;;5056784;28;20121;-79
2022/12/09 03:53:20;;;;;;;11.57;8.35;;;0.50;99.90;;;;;;5052563;28;20829;-79
2022/12/09 03:55:56;;;;;;;12.85;9.32;;;1.00;99.90;;;;;;5048727;28;20052;-79
2022/12/09 03:58:23;;;;;;;13.13;8.93;;;0.40;99.90;;;;;;5046275;28;20049;-79
2022/12/09 04:00:49;;;;;;;15.88;10.20;;;0.40;99.90;;;;;;5039282;28;20489;-79
2022/12/09 04:03:16;;;;;;;13.75;9.73;;;0.30;99.90;;;;;;5043142;28;20087;-79
2022/12/09 04:05:42;;;;;;;12.85;9.02;;;0.20;99.90;;;;;;5045275;28;20052;-79
2022/12/09 04:08:08;;;;;;;13.13;8.60;;;0.50;99.90;;;;;;5043696;28;20169;-79
2022/12/09 04:10:34;;;;;;;17.55;9.15;;;1.10;99.90;;;;;;5053355;28;20110;-79
2022/12/09 04:13:00;;;;;;;17.77;10.00;;;0.20;99.90;;;;;;5044946;28;20595;-79
2022/12/09 04:15:25;;;;;;;15.05;10.48;;;0.20;99.90;;;;;;5040725;28;20040;-79
2022/12/09 04:17:51;;;;;;;13.93;9.60;;;1.40;99.90;;;;;;5051362;28;20052;-79
2022/12/09 04:20:17;;;;;;;13.27;8.02;;;0.00;99.90;;;;;;5043680;28;20048;-79
2022/12/09 04:22:42;;;;;;;14.70;9.20;;;0.00;99.90;;;;;;5042091;28;20049;-79
2022/12/09 04:25:08;;;;;;;12.18;8.15;;;-0.10;99.90;;;;;;5041034;28;20083;-79
2022/12/09 04:27:34;;;;;;;16.70;9.98;;;0.00;99.90;;;;;;5044962;28;20045;-79
2022/12/09 04:30:00;;;;;;;15.00;9.93;;;0.10;99.90;;;;;;5040510;28;20084;-79
2022/12/09 04:32:28;;;;;;;14.95;9.20;;;1.30;99.90;;;;;;5049171;28;20052;-79
2022/12/09 04:34:54;;;;;;;15.77;11.18;;;0.00;99.90;;;;;;5038005;28;20075;-79
2022/12/09 04:37:19;;;;;;;14.52;8.27;;;2.10;99.90;;;;;;5041394;28;20061;-79
2022/12/09 04:39:45;;;;;;;12.48;8.60;;;0.00;99.90;;;;;;5042102;28;20061;-79
2022/12/09 04:42:11;;;;;;;11.80;8.05;;;1.80;99.90;;;;;;5041815;28;20044;-79
2022/12/09 04:44:36;;;;;;;13.27;8.43;;;-0.10;99.90;;;;;;5039717;28;20136;-79
2022/12/09 04:47:03;;;;;;;12.90;8.50;;;-0.10;99.90;;;;;;5043089;28;20092;-78
2022/12/09 04:49:29;;;;;;;13.65;9.63;;;-0.10;99.90;;;;;;5055433;28;20063;-79
2022/12/09 04:51:55;;;;;;;16.10;10.98;;;-0.10;99.90;;;;;;5041916;28;20511;-79
2022/12/09 04:54:21;;;;;;;14.27;8.57;;;-0.10;99.90;;;;;;5046622;28;20045;-79
2022/12/09 04:56:48;;;;;;;14.63;10.30;;;-0.20;99.90;;;;;;5037963;28;20056;-78
2022/12/09 04:59:14;;;;;;;13.00;9.05;;;-0.20;99.90;;;;;;5036865;28;20064;-79
2022/12/09 05:01:40;;;;;;;20.98;9.80;;;-0.20;99.90;;;;;;5039366;28;20105;-79
2022/12/09 05:04:06;;;;;;;14.90;10.40;;;-0.20;99.90;;;;;;5075686;28;20044;-79
2022/12/09 05:06:32;;;;;;;14.77;10.20;;;-0.10;99.90;;;;;;5053162;28;20056;-79
2022/12/09 05:08:58;;;;;;;16.13;10.13;;;-0.20;99.90;;;;;;5049792;28;20111;-79
2022/12/09 05:11:24;;;;;;;15.32;9.93;;;0.80;99.90;;;;;;5045765;28;20127;-79
2022/12/09 05:13:50;;;;;;;15.80;10.63;;;-0.30;99.90;;;;;;5049968;28;20055;-79
2022/12/09 05:16:17;;;;;;;15.35;10.75;;;0.10;99.90;;;;;;5042178;28;20063;-79
2022/12/09 05:18:43;;;;;;;13.65;10.30;;;0.70;99.90;;;;;;5036105;28;20144;-79
2022/12/09 05:21:11;;;;;;;12.35;9.15;;;-0.40;99.90;;;;;;5072306;28;20048;-79
2022/12/09 05:23:37;;;;;;;13.23;8.43;;;-0.40;99.90;;;;;;5043730;28;20045;-79
2022/12/09 05:26:05;;;;;;;17.00;11.45;;;0.50;99.90;;;;;;5049270;28;20523;-79
2022/12/09 05:28:31;;;;;;;14.88;10.55;;;-0.40;99.90;;;;;;5037515;28;20410;-79
2022/12/09 05:31:05;;;;;;;17.08;10.23;;;0.50;99.90;;;;;;5038441;28;20130;-79
2022/12/09 05:33:31;;;;;;;14.02;10.30;;;-0.30;99.90;;;;;;5039261;28;20107;-79
2022/12/09 05:35:57;;;;;;;15.77;10.05;;;-0.30;99.90;;;;;;5050441;28;20148;-79
2022/12/09 05:38:23;;;;;;;13.77;10.32;;;-0.30;99.90;;;;;;5039984;28;20056;-79
2022/12/09 05:40:49;;;;;;;15.70;11.43;;;-0.30;99.90;;;;;;5039681;28;20049;-79
2022/12/09 05:43:15;;;;;;;15.65;10.15;;;1.00;99.90;;;;;;5043499;28;20564;-79
2022/12/09 05:45:41;;;;;;;14.82;9.13;;;0.80;99.90;;;;;;5048111;28;20052;-79
2022/12/09 05:48:06;;;;;;;16.75;10.85;;;1.60;99.90;;;;;;5051174;28;20080;-79
2022/12/09 05:50:32;;;;;;;16.95;9.43;;;-0.50;99.90;;;;;;5051789;28;20056;-79
2022/12/09 05:52:58;;;;;;;13.48;9.02;;;-0.50;99.90;;;;;;5047238;28;20082;-79
2022/12/09 05:55:24;;;;;;;16.02;10.48;;;-0.50;99.90;;;;;;5043830;28;20103;-78
2022/12/09 05:57:50;;;;;;;15.70;9.75;;;-0.50;99.90;;;;;;5044765;28;20057;-79
2022/12/09 06:00:16;;;;;;;12.10;8.98;;;0.30;99.90;;;;;;5054724;28;20245;-79
2022/12/09 06:02:41;;;;;;;17.83;10.45;;;-0.40;99.90;;;;;;5050666;28;20836;-78
2022/12/09 06:05:08;;;;;;;16.13;8.75;;;0.30;99.90;;;;;;5053855;28;20635;-79
2022/12/09 06:07:34;;;;;;;19.95;11.48;;;-0.50;99.90;;;;;;5041163;28;20045;-78
2022/12/09 06:10:00;;;;;;;15.75;9.98;;;-0.60;99.90;;;;;;5040706;28;20045;-79
2022/12/09 06:12:26;;;;;;;16.27;10.48;;;-0.60;99.90;;;;;;5040690;28;20037;-78
2022/12/09 06:14:52;;;;;;;15.18;9.38;;;-0.70;99.90;;;;;;5046692;28;20044;-78
2022/12/09 06:17:18;;;;;;;12.30;8.38;;;-0.70;99.90;;;;;;5046900;28;20056;-78
2022/12/09 06:19:43;;;;;;;15.98;10.80;;;0.00;99.90;;;;;;5048438;28;20949;-78
2022/12/09 06:22:09;;;;;;;13.30;8.68;;;-0.60;99.90;;;;;;5050390;28;20044;-78
2022/12/09 06:24:35;;;;;;;17.08;12.35;;;-0.70;99.90;;;;;;5047942;28;20785;-78
2022/12/09 06:27:00;;;;;;;14.93;11.00;;;-0.70;99.90;;;;;;5046033;28;20532;-78
2022/12/09 06:29:26;;;;;;;20.75;10.77;;;-0.70;99.90;;;;;;5040703;28;20044;-78
2022/12/09 06:31:52;;;;;;;18.15;10.45;;;-0.70;99.90;;;;;;5045047;28;20627;-78
2022/12/09 06:34:17;;;;;;;18.35;10.70;;;-0.70;99.90;;;;;;5038391;28;20694;-78
2022/12/09 06:36:43;;;;;;;20.45;12.50;;;-0.70;99.90;;;;;;5050418;28;20052;-78
2022/12/09 06:39:09;;;;;;;17.08;11.60;;;-0.40;99.90;;;;;;5039887;28;20049;-78
2022/12/09 06:41:35;;;;;;;18.42;12.50;;;-0.70;99.90;;;;;;5049100;28;20036;-78
2022/12/09 06:44:01;;;;;;;16.33;11.90;;;-0.80;99.90;;;;;;5044862;28;20053;-78
2022/12/09 06:46:27;;;;;;;19.63;11.27;;;-0.80;99.90;;;;;;5044125;28;20082;-78
2022/12/09 06:48:54;;;;;;;18.67;11.20;;;-0.80;99.90;;;;;;5042487;28;20045;-78
2022/12/09 06:51:21;;;;;;;18.95;11.10;;;1.30;99.90;;;;;;5042142;28;20056;-78
2022/12/09 06:53:47;;;;;;;19.15;11.00;;;-0.30;99.90;;;;;;5044899;28;20080;-78
2022/12/09 06:56:14;;;;;;;19.20;12.90;;;-0.70;99.90;;;;;;5039349;28;20164;-78
2022/12/09 06:58:41;;;;;;;18.27;13.05;;;0.70;99.90;;;;;;5045671;28;20111;-78
2022/12/09 07:01:15;;;;;;;16.58;10.50;;;0.00;99.90;;;;;;5040189;28;20049;-78
2022/12/09 07:03:46;;;;;;;15.15;10.45;;;0.90;99.90;;;;;;5045935;28;20156;-78
2022/12/09 07:06:26;;;;;;;17.48;11.18;;;-0.60;99.90;;;;;;5042498;28;20145;-78
2022/12/09 07:08:52;;;;;;;17.80;11.23;;;-0.80;99.90;;;;;;5040122;28;20451;-78
2022/12/09 07:11:18;;;;;;;15.98;10.23;;;-0.80;99.90;;;;;;5038311;28;20374;-78
2022/12/09 07:13:44;;;;;;;18.15;11.32;;;-0.80;99.90;;;;;;5055949;28;20076;-78
2022/12/09 07:16:09;;;;;;;17.33;11.98;;;0.60;99.90;;;;;;5049246;28;20141;-77
2022/12/09 07:18:35;;;;;;;13.43;10.02;;;0.50;99.90;;;;;;5037101;28;20045;-78
2022/12/09 07:21:13;;;;;;;21.00;12.10;;;0.90;99.90;;;;;;5045975;28;20049;-78
2022/12/09 07:23:39;;;;;;;15.68;10.73;;;0.90;99.90;;;;;;5039437;28;20045;-77
2022/12/09 07:26:05;;;;;;;17.13;10.95;;;-0.80;99.90;;;;;;5049801;28;20906;-78
2022/12/09 07:28:36;;;;;;;18.65;12.20;;;-0.70;99.90;;;;;;5041043;28;20611;-77
2022/12/09 07:31:02;;;;;;;18.92;12.95;;;-0.70;99.90;;;;;;5044346;28;20051;-79
2022/12/09 07:33:28;;;;;;;16.67;11.43;;;-0.80;99.90;;;;;;5051918;28;20103;-78
2022/12/09 07:35:56;;;;;;;16.67;9.85;;;-0.70;99.90;;;;;;5051044;28;20117;-79
2022/12/09 07:38:23;;;;;;;18.95;12.27;;;-0.70;99.90;;;;;;5050996;28;20135;-79
2022/12/09 07:40:49;;;;;;;18.88;11.55;;;0.50;99.90;;;;;;5050828;28;20146;-79
2022/12/09 07:43:14;;;;;;;19.88;11.57;;;-0.70;99.90;;;;;;5054167;28;20048;-78
2022/12/09 07:45:40;;;;;;;18.05;12.07;;;-0.70;99.90;;;;;;5054908;28;20051;-79
2022/12/09 07:48:07;;;;;;;16.92;12.02;;;-0.70;99.90;;;;;;5054068;28;20110;-78
2022/12/09 07:50:33;;;;;;;23.15;14.15;;;-0.80;99.90;;;;;;5052095;28;20505;-79
2022/12/09 07:52:59;;;;;;;20.67;13.20;;;-0.70;99.90;;;;;;5049644;28;20048;-78
2022/12/09 07:55:25;;;;;;;19.83;11.63;;;-0.70;99.90;;;;;;5048236;28;20578;-78
2022/12/09 07:57:51;;;;;;;21.70;12.70;;;-0.70;99.90;;;;;;5046636;28;20641;-78
2022/12/09 08:00:17;;;;;;;18.92;12.13;;;-0.70;99.90;;;;;;5050716;28;20071;-78
2022/12/09 08:02:43;;;;;;;17.42;12.27;;;-0.70;99.90;;;;;;5049962;28;20041;-77
2022/12/09 08:05:09;;;;;;;20.88;12.00;;;-0.70;99.90;;;;;;5051069;28;20047;-78
2022/12/09 08:07:34;;;;;;;20.65;13.68;;;0.90;99.90;;;;;;5048173;28;20048;-78
2022/12/09 08:10:00;;;;;;;18.33;11.50;;;-0.30;99.90;;;;;;5046860;28;20044;-79
2022/12/09 08:12:26;;;;;;;18.95;11.57;;;-0.30;99.90;;;;;;5052745;28;20049;-78
2022/12/09 08:14:51;;;;;;;21.85;13.30;;;-0.40;99.90;;;;;;5048182;28;20040;-78
2022/12/09 08:17:17;;;;;;;17.30;11.27;;;-0.40;99.90;;;;;;5051724;28;20118;-78
2022/12/09 08:19:43;;;;;;;16.58;11.80;;;-0.10;99.90;;;;;;5050642;28;20044;-78
2022/12/09 08:22:08;;;;;;;21.20;13.77;;;-0.20;99.90;;;;;;5051972;28;20044;-78
2022/12/09 08:24:34;;;;;;;21.30;13.93;;;-0.30;99.90;;;;;;5052636;28;20053;-78
2022/12/09 08:27:00;;;;;;;17.98;12.30;;;-0.20;99.90;;;;;;5052365;28;20049;-79
2022/12/09 08:29:26;;;;;;;17.58;12.65;;;-0.30;99.90;;;;;;5047392;28;20044;-78
2022/12/09 08:31:52;;;;;;;21.98;12.95;;;-0.20;99.90;;;;;;5049259;28;20048;-78
2022/12/09 08:34:18;;;;;;;22.45;13.23;;;-0.20;99.90;;;;;;5047889;28;20139;-77
2022/12/09 08:36:44;;;;;;;23.58;15.45;;;0.80;99.90;;;;;;5050790;28;20131;-79
2022/12/09 08:39:11;;;;;;;20.13;13.55;;;-0.10;99.90;;;;;;5050114;28;20597;-78
2022/12/09 08:41:38;;;;;;;23.00;14.00;;;-0.10;99.90;;;;;;5048313;28;20048;-78
2022/12/09 08:44:12;;;;;;;20.48;12.05;;;-0.10;99.90;;;;;;5051009;28;20056;-78
2022/12/09 08:46:40;;;;;;;24.13;15.18;;;0.40;99.90;;;;;;5047304;28;20041;-78
2022/12/09 08:49:06;;;;;;;17.48;11.93;;;0.00;99.90;;;;;;5041649;28;20160;-79
2022/12/09 08:51:32;;;;;;;20.33;13.20;;;1.10;99.90;;;;;;5072422;28;20052;-78
2022/12/09 08:53:59;;;;;;;24.80;16.92;;;0.10;99.90;;;;;;5040698;28;20088;-78
2022/12/09 08:56:25;;;;;;;21.80;15.55;;;0.80;99.90;;;;;;5039956;28;20060;-78
2022/12/09 08:58:52;;;;;;;20.42;14.43;;;1.20;99.90;;;;;;5041405;28;20627;-78
2022/12/09 09:01:25;;;;;;;24.80;16.35;;;1.30;99.90;;;;;;5039658;28;20167;-78
2022/12/09 09:03:51;;;;;;;;;;;0.40;99.90;;;;;;5044181;28;20053;-78
2022/12/09 09:06:17;;;;;;;20.58;13.75;;;0.40;99.90;;;;;;5037286;28;19934;-78
2022/12/09 09:08:44;;;;;;;30.77;19.08;;;0.60;99.90;;;;;;5037475;28;20045;-78
2022/12/09 09:11:18;;;;;;;23.58;15.80;;;0.60;99.90;;;;;;5040040;28;20257;-78
2022/12/09 09:13:46;;;;;;;28.85;17.98;;;0.70;99.90;;;;;;5045891;28;20048;-78
2022/12/09 09:16:19;;;;;;;28.83;16.50;;;1.20;99.90;;;;;;5050320;28;20509;-78
2022/12/09 09:18:45;;;;;;;24.27;16.00;;;1.40;99.90;;;;;;5038208;28;20109;-78
2022/12/09 09:21:13;;;;;;;26.95;18.73;;;0.90;99.90;;;;;;5040296;28;20267;-78
2022/12/09 09:23:40;;;;;;;33.28;19.98;;;1.20;99.90;;;;;;5038751;28;20340;-78
2022/12/09 09:26:17;;;;;;;31.83;20.33;;;1.10;99.90;;;;;;5052420;28;20075;-78
2022/12/09 09:28:43;;;;;;;28.60;21.05;;;1.10;99.90;;;;;;5054775;28;20055;-78
2022/12/09 09:31:11;;;;;;;32.00;22.50;;;1.20;99.90;;;;;;5061200;28;20588;-78
2022/12/09 09:33:37;;;;;;;34.92;21.55;;;1.20;99.90;;;;;;5042424;28;20065;-78
2022/12/09 09:36:06;;;;;;;28.73;20.27;;;1.20;99.90;;;;;;5048704;28;20048;-78
2022/12/09 09:38:32;;;;;;;28.55;19.75;;;1.30;99.90;;;;;;5058351;28;20044;-78
2022/12/09 09:40:59;;;;;;;28.92;19.17;;;2.40;99.90;;;;;;5053640;28;20099;-78
2022/12/09 09:43:29;;;;;;;34.03;21.95;;;1.50;99.90;;;;;;5059014;28;20052;-78
2022/12/09 09:45:57;;;;;;;27.85;19.58;;;1.70;99.90;;;;;;5040755;28;20048;-78
2022/12/09 09:48:26;;;;;;;34.03;21.80;;;2.90;99.90;;;;;;5052964;28;20063;-78
2022/12/09 09:51:01;;;;;;;32.20;20.90;;;1.90;99.90;;;;;;5041576;28;20044;-78
2022/12/09 09:53:30;;;;;;;42.30;24.27;;;2.90;99.90;;;;;;5047592;28;20049;-78
2022/12/09 09:56:16;;;;;;;36.42;23.23;;;1.90;99.90;;;;;;5043978;28;20118;-78
2022/12/09 09:58:55;;;;;;;31.52;21.58;;;1.90;99.90;;;;;;5048574;28;20048;-78
2022/12/09 10:01:24;;;;;;;35.30;18.60;;;2.20;99.90;;;;;;5055090;28;20056;-78
2022/12/09 10:04:15;;;;;;;30.50;20.25;;;1.80;99.90;;;;;;5044963;28;20041;-78
2022/12/09 10:06:59;;;;;;;34.47;20.05;;;1.80;99.90;;;;;;5044921;28;20045;-78
2022/12/09 10:09:48;;;;;;;33.80;20.67;;;1.80;99.90;;;;;;5049775;28;20501;-78
2022/12/09 10:12:32;;;;;;;32.45;20.95;;;1.80;99.90;;;;;;5047602;28;20096;-77
2022/12/09 10:15:13;;;;;;;37.25;22.35;;;1.90;99.90;;;;;;5041719;28;20045;-82
2022/12/09 10:17:44;;;;;;;30.73;20.77;;;1.90;99.90;;;;;;5057453;28;20044;-78
2022/12/09 10:20:21;;;;;;;44.20;22.67;;;1.90;99.90;;;;;;5039764;28;20053;-78
2022/12/09 10:22:50;;;;;;;34.55;20.83;;;1.90;99.90;;;;;;5058506;28;20041;-78
2022/12/09 10:25:24;;;;;;;38.00;21.38;;;1.90;99.90;;;;;;5046408;28;20045;-78
2022/12/09 10:28:05;;;;;;;47.17;23.80;;;1.90;99.90;;;;;;5072840;28;20547;-77
2022/12/09 10:30:31;;;;;;;27.55;19.08;;;1.90;99.90;;;;;;5052393;28;20052;-77
2022/12/09 10:32:56;;;;;;;32.78;19.20;;;2.30;99.90;;;;;;5049296;28;20095;-77
2022/12/09 10:35:25;;;;;;;31.60;20.63;;;2.00;99.90;;;;;;5034248;28;20139;-77
2022/12/09 10:37:53;;;;;;;35.38;21.20;;;2.00;99.90;;;;;;5051825;28;20834;-78
2022/12/09 10:40:43;;;;;;;31.85;19.00;;;2.60;99.90;;;;;;5042355;28;20063;-78
2022/12/09 10:43:37;;;;;;;38.40;19.50;;;1.90;99.90;;;;;;5045932;28;20052;-77
2022/12/09 10:46:12;;;;;;;28.98;19.98;;;2.50;99.90;;;;;;5041241;28;20048;-77
2022/12/09 10:49:02;;;;;;;24.60;17.10;;;1.90;99.90;;;;;;5042522;28;20147;-77
2022/12/09 10:51:33;;;;;;;23.80;17.13;;;2.70;99.90;;;;;;5040963;28;20045;-79
2022/12/09 10:54:00;;;;;;;24.77;19.52;;;2.00;99.90;;;;;;5039777;28;20045;-78
2022/12/09 10:56:28;;;;;;;34.25;20.27;;;2.70;99.90;;;;;;5043552;28;20438;-77
2022/12/09 10:59:12;;;;;;;32.33;20.35;;;2.10;99.90;;;;;;5045858;28;20053;-78
2022/12/09 11:02:16;;;;;;;31.83;19.27;;;2.20;99.90;;;;;;5039474;28;20421;-78
2022/12/09 11:04:43;;;;;;;30.13;20.70;;;2.10;99.90;;;;;;5036330;28;20087;-79
2022/12/09 11:07:09;;;;;;;31.23;19.90;;;2.10;99.90;;;;;;5045397;28;20045;-78
2022/12/09 11:09:44;;;;;;;36.42;21.80;;;3.00;99.90;;;;;;5042982;28;20571;-78
2022/12/09 11:12:27;;;;;;;40.05;22.65;;;2.20;99.90;;;;;;5045759;28;20052;-78
2022/12/09 11:15:01;;;;;;;30.67;21.08;;;2.20;99.90;;;;;;5040100;28;20151;-79
2022/12/09 11:17:36;;;;;;;28.17;18.63;;;2.20;99.90;;;;;;5051755;28;20044;-78
2022/12/09 11:20:04;;;;;;;25.77;17.42;;;2.30;99.90;;;;;;5041234;28;20041;-79
2022/12/09 11:22:39;;;;;;;28.70;22.58;;;3.20;99.90;;;;;;5045046;28;20056;-79
2022/12/09 11:25:10;;;;;;;32.63;20.85;;;2.40;99.90;;;;;;5038796;28;20037;-79
2022/12/09 11:27:39;;;;;;;35.95;23.58;;;2.50;99.90;;;;;;5039317;28;20863;-79
2022/12/09 11:30:16;;;;;;;37.00;22.38;;;3.10;99.90;;;;;;5043126;28;20055;-79
2022/12/09 11:33:14;;;;;;;36.08;23.40;;;2.50;99.90;;;;;;5048094;28;20054;-79
2022/12/09 11:35:42;;;;;;;42.95;22.48;;;2.50;99.90;;;;;;5032123;28;20053;-79
2022/12/09 11:38:16;;;;;;;40.63;25.10;;;2.40;99.90;;;;;;5044328;28;20064;-79
2022/12/09 11:40:43;;;;;;;36.47;22.08;;;2.60;99.90;;;;;;5052045;28;20041;-78
2022/12/09 11:43:09;;;;;;;31.67;21.77;;;2.40;99.90;;;;;;5049210;28;20036;-79
2022/12/09 11:45:38;;;;;;;28.02;20.80;;;2.30;99.90;;;;;;5050446;28;20049;-79
2022/12/09 11:48:04;;;;;;;30.42;20.33;;;2.60;99.90;;;;;;5046966;28;20102;-79
2022/12/09 11:50:31;;;;;;;30.23;20.63;;;2.40;99.90;;;;;;5049888;28;20052;-79
2022/12/09 11:53:09;;;;;;;31.92;20.85;;;2.50;99.90;;;;;;5048756;28;20045;-79
2022/12/09 11:55:50;;;;;;;31.75;20.33;;;2.40;99.90;;;;;;5049089;28;20047;-79
2022/12/09 11:58:24;;;;;;;33.80;20.95;;;2.40;99.90;;;;;;5052560;28;20123;-79
2022/12/09 12:00:55;;;;;;;33.75;24.70;;;2.40;99.90;;;;;;5049412;28;20661;-81
2022/12/09 12:03:36;;;;;;;26.55;19.42;;;2.40;99.90;;;;;;5050905;28;20049;-79
2022/12/09 12:06:10;;;;;;;27.83;20.13;;;2.40;99.90;;;;;;5045363;28;20079;-79
2022/12/09 12:09:01;;;;;;;26.42;18.50;;;2.40;99.90;;;;;;5054737;28;20087;-79
2022/12/09 12:11:35;;;;;;;27.25;19.38;;;2.40;99.90;;;;;;5047827;28;20548;-78
2022/12/09 12:14:13;;;;;;;26.58;19.90;;;3.50;99.90;;;;;;5049909;28;20163;-80
2022/12/09 12:17:11;;;;;;;27.42;19.65;;;3.60;99.90;;;;;;5052728;28;20045;-79
2022/12/09 12:19:39;;;;;;;30.35;21.52;;;2.40;99.90;;;;;;5051274;28;20088;-80
2022/12/09 12:22:25;;;;;;;28.45;19.63;;;2.30;99.90;;;;;;5047984;28;20587;-77
2022/12/09 12:25:00;;;;;;;29.60;20.50;;;2.30;99.90;;;;;;5045824;28;20135;-80
2022/12/09 12:27:34;;;;;;;25.45;19.17;;;2.30;99.90;;;;;;5040088;28;20056;-79
2022/12/09 12:30:17;;;;;;;29.63;19.80;;;2.40;99.90;;;;;;5040783;28;20795;-80
2022/12/09 12:33:04;;;;;;;25.80;17.17;;;2.40;99.90;;;;;;5045901;28;20075;-80
2022/12/09 12:35:59;;;;;;;27.95;22.58;;;2.50;99.90;;;;;;5051715;28;20095;-80
2022/12/09 12:38:53;;;;;;;35.25;22.20;;;2.50;99.90;;;;;;5040072;28;20053;-79
2022/12/09 12:41:32;;;;;;;35.08;24.85;;;2.50;99.90;;;;;;5041270;28;20045;-80
2022/12/09 12:47:39;;;;;;;30.67;21.40;;;2.60;99.90;;;;;;5039875;28;20084;-83
2022/12/09 12:50:37;;;;;;;32.60;22.13;;;2.50;99.90;;;;;;5054551;28;20703;-79
2022/12/09 12:53:46;;;;;;;29.25;19.20;;;2.50;99.90;;;;;;5048858;28;20130;-82
2022/12/09 12:56:22;;;;;;;31.13;20.38;;;2.60;99.90;;;;;;5042567;28;20048;-79
2022/12/09 12:59:06;;;;;;;30.15;20.27;;;2.50;99.90;;;;;;5040586;28;20105;-82